Flight Track Log - Related Links

Times and Time Zones

All times are in EDT time to prevent confusion due to time zone crossing. See the AWE1913 flight status page for this flight to view local times or setup timezone preferences in your user account.

Time Position Orientation Groundspeed Altitude Reporting Facility
EDT Latitude Longitude Course Direction KTS MPH feet Rate Location/Type
Wed 07:31:30 AM 42.2272 -83.3369 90° East 142 163 1,300  Level Cleveland Center
Wed 07:32:37 AM 42.2536 -83.2792 58° Northeast 212 244 3,400 1,701 Climbing Cleveland Center
Wed 07:33:44 AM 42.2808 -83.1792 70° East 319 367 5,100 2,459 Climbing Cleveland Center
Wed 07:34:00 AM 42.2167 -82.8208 90° East  Level FlightAware Approximate
Wed 07:34:39 AM 42.2811 -83.0753 90° East 336 387 8,400  Level Cleveland Center
Wed 07:35:00 AM 42.2167 -82.6421 90° East  Level FlightAware Approximate
Wed 07:35:45 AM 42.2147 -82.9550 127° Southeast 337 388 10,900  Level Cleveland Center
Wed 07:36:00 AM 42.2167 -82.4633 90° East  Level FlightAware Approximate
Wed 07:36:45 AM 42.1900 -82.8336 105° East 398 458 12,900  Level Cleveland Center
Wed 07:37:45 AM 42.2036 -82.6769 83° East 373 429 14,300 2,000 Climbing Cleveland Center
Wed 07:38:45 AM 42.1769 -82.5278 104° East 391 450 16,900 2,550 Climbing Cleveland Center
Wed 07:39:45 AM 42.1144 -82.3942 122° Southeast 396 456 19,400 2,050 Climbing Cleveland Center
Wed 07:40:45 AM 42.0478 -82.2608 124° Southeast 410 472 21,000 1,100 Climbing Cleveland Center
Wed 07:41:45 AM 41.9831 -82.1222 122° Southeast 433 498 21,600 1,250 Climbing Cleveland Center
Wed 07:42:45 AM 41.9161 -81.9811 122° Southeast 450 518 23,500 1,450 Climbing Cleveland Center
Wed 07:43:45 AM 41.8447 -81.8375 124° Southeast 450 518 24,500 1,250 Climbing Cleveland Center
Wed 07:44:45 AM 41.7733 -81.6914 123° Southeast 463 533 26,000 1,600 Climbing Cleveland Center
Wed 07:45:45 AM 41.6997 -81.5369 123° Southeast 472 543 27,700 1,700 Climbing Cleveland Center
Wed 07:46:45 AM 41.6258 -81.3831 123° Southeast 488 562 29,400 1,500 Climbing Cleveland Center
Wed 07:47:45 AM 41.5578 -81.2492 124° Southeast 493 567 30,700 1,500 Climbing Cleveland Center
Wed 07:48:45 AM 41.4753 -81.1069 128° Southeast 486 559 32,400 1,650 Climbing Cleveland Center
Wed 07:49:45 AM 41.3819 -80.9761 134° Southeast 481 554 34,000 1,300 Climbing Cleveland Center
Wed 07:50:45 AM 41.2906 -80.8511 134° Southeast 481 554 35,000 500 Climbing Cleveland Center
Wed 07:51:45 AM 41.1908 -80.7100 133° Southeast 476 548 35,000  Level Cleveland Center
Wed 07:52:45 AM 41.1117 -80.5997 134° Southeast 470 541 35,000  Level Cleveland Center
Wed 07:53:45 AM 41.0197 -80.4758 135° Southeast 470 541 35,000  Level Cleveland Center
Wed 07:54:45 AM 40.9278 -80.3494 134° Southeast 470 541 35,000  Level Cleveland Center
Wed 07:55:45 AM 40.8253 -80.2181 136° Southeast 470 541 35,000  Level Cleveland Center
Wed 07:56:45 AM 40.7353 -80.0953 134° Southeast 470 541 35,000  Level Cleveland Center
Wed 07:57:45 AM 40.6556 -79.9808 133° Southeast 464 534 35,000  Level Cleveland Center
Wed 07:58:45 AM 40.5836 -79.8175 120° Southeast 464 534 35,000  Level Cleveland Center
Wed 07:59:45 AM 40.5428 -79.6514 108° East 464 534 35,000  Level Cleveland Center
Wed 08:00:45 AM 40.4975 -79.4856 110° East 470 541 35,000  Level Cleveland Center
Wed 08:01:45 AM 40.4522 -79.3225 110° East 475 547 35,000 -200 Level Cleveland Center
Wed 08:02:45 AM 40.4044 -79.1597 111° Southeast 475 547 34,600 -650 Descending Cleveland Center
Wed 08:03:45 AM 40.3628 -79.0136 110° East 470 541 33,700 -950 Descending Cleveland Center
Wed 08:04:45 AM 40.3269 -78.8456 106° East 470 541 32,700 -950 Descending Cleveland Center
Wed 08:05:45 AM 40.3158 -78.6717 95° East 470 541 31,800 -1,050 Descending Cleveland Center
Wed 08:06:45 AM 40.3150 -78.5000 90° East 477 549 30,600 -1,150 Descending Cleveland Center
Wed 08:07:45 AM 40.3136 -78.3258 91° East 472 543 29,500 -1,763 Descending Cleveland Center
Wed 08:09:42 AM 40.3125 -77.9767 90° East 481 554 25,400 -1,646 Descending New York Center
Wed 08:10:40 AM 40.3103 -77.8075 91° East 475 547 24,700 -1,627 Descending New York Center
Wed 08:11:40 AM 40.3114 -77.6444 89° East 461 531 22,200 -2,430 Descending New York Center
Wed 08:12:41 AM 40.3081 -77.4889 92° East 446 513 19,800 -2,331 Descending New York Center
Wed 08:13:41 AM 40.3053 -77.3497 91° East 432 497 17,500 -1,388 Descending New York Center
Wed 08:14:42 AM 40.3042 -77.1836 90° East 418 481 17,000 -252 Descending New York Center
Wed 08:15:40 AM 40.2933 -77.0356 95° East 413 475 17,000 -102 Level New York Center
Wed 08:16:40 AM 40.2592 -76.8883 107° East 420 483 16,800 -1,131 Descending New York Center
Wed 08:17:42 AM 40.2269 -76.7467 107° East 420 483 14,700 -2,213 Descending New York Center
Wed 08:18:42 AM 40.1942 -76.6081 107° East 405 466 12,300 -2,205 Descending New York Center
Wed 08:19:39 AM 40.1647 -76.4858 107° East 393 452 10,400 -1,340 Descending New York Center
Wed 08:20:25 AM 40.1381 -76.3681 106° East 387 445 10,000 -364 Descending FAA TRACON SMA TRACON (SMA)
Wed 08:20:45 AM 40.1281 -76.3269 108° East 386 444 10,000  Level FAA TRACON SMA TRACON (SMA)
Wed 08:21:05 AM 40.1189 -76.2858 106° East 384 442 10,000  Level FAA TRACON SMA TRACON (SMA)
Wed 08:21:25 AM 40.1178 -76.2336 92° East 378 435 10,000  Level FAA TRACON SMA TRACON (SMA)
Wed 08:21:45 AM 40.1128 -76.1922 99° East 378 435 10,000 -150 Level FAA TRACON SMA TRACON (SMA)
Wed 08:22:05 AM 40.1111 -76.1508 93° East 356 410 9,900 -600 Descending FAA TRACON SMA TRACON (SMA)
Wed 08:22:25 AM 40.1078 -76.1044 95° East 339 390 9,600 -1,050 Descending FAA TRACON SMA TRACON (SMA)
Wed 08:22:45 AM 40.1050 -76.0686 96° East 328 377 9,200 -1,350 Descending FAA TRACON SMA TRACON (SMA)
Wed 08:23:05 AM 40.1019 -76.0331 96° East 321 369 8,700 -1,650 Descending FAA TRACON SMA TRACON (SMA)
Wed 08:23:25 AM 40.0992 -75.9883 95° East 321 369 8,100 -1,050 Descending FAA TRACON SMA TRACON (SMA)
Wed 08:23:45 AM 40.0969 -75.9528 95° East 320 368 8,000 -150 Descending FAA TRACON SMA TRACON (SMA)
Wed 08:24:05 AM 40.0944 -75.9178 95° East 319 367 8,000  Level FAA TRACON SMA TRACON (SMA)
Wed 08:24:25 AM 40.0911 -75.8731 96° East 320 368 8,000  Level FAA TRACON SMA TRACON (SMA)
Wed 08:24:45 AM 40.0894 -75.8397 94° East 319 367 8,000  Level FAA TRACON SMA TRACON (SMA)
Wed 08:25:05 AM 40.0861 -75.8039 97° East 319 367 8,000  Level FAA TRACON SMA TRACON (SMA)
Wed 08:25:25 AM 40.0828 -75.7578 95° East 319 367 8,000  Level FAA TRACON SMA TRACON (SMA)
Wed 08:25:45 AM 40.0814 -75.7228 93° East 319 367 8,000  Level FAA TRACON SMA TRACON (SMA)
Wed 08:26:05 AM 40.0917 -75.6908 67° East 302 348 8,000  Level FAA TRACON SMA TRACON (SMA)
Wed 08:26:25 AM 40.1067 -75.6528 63° Northeast 303 349 8,000  Level FAA TRACON SMA TRACON (SMA)
Wed 08:26:45 AM 40.1172 -75.6253 63° Northeast 290 334 8,000  Level FAA TRACON SMA TRACON (SMA)
Wed 08:27:05 AM 40.1278 -75.5967 64° Northeast 277 319 8,000 -450 Level FAA TRACON SMA TRACON (SMA)
Wed 08:27:25 AM 40.1389 -75.5653 65° Northeast 260 299 7,700 -1,050 Descending FAA TRACON SMA TRACON (SMA)
Wed 08:27:45 AM 40.1489 -75.5381 64° Northeast 258 297 7,300 -1,050 Descending FAA TRACON SMA TRACON (SMA)
Wed 08:28:05 AM 40.1581 -75.5133 64° Northeast 260 299 7,000 -1,050 Descending FAA TRACON SMA TRACON (SMA)
Wed 08:28:25 AM 40.1681 -75.4858 65° Northeast 258 297 6,600 -1,350 Descending FAA TRACON SMA TRACON (SMA)
Wed 08:28:45 AM 40.1794 -75.4533 65° Northeast 256 295 6,100 -900 Descending FAA TRACON SMA TRACON (SMA)
Wed 08:29:05 AM 40.1819 -75.4242 84° East 282 325 6,000 -150 Descending FAA TRACON SMA TRACON (SMA)
Wed 08:29:25 AM 40.1711 -75.3978 118° Southeast 273 314 6,000  Level FAA TRACON SMA TRACON (SMA)
Wed 08:29:45 AM 40.1544 -75.3703 128° Southeast 272 313 6,000  Level FAA TRACON SMA TRACON (SMA)
Wed 08:30:05 AM 40.1397 -75.3439 126° Southeast 263 303 6,000  Level FAA TRACON SMA TRACON (SMA)
Wed 08:30:25 AM 40.1236 -75.3172 128° Southeast 262 302 6,000  Level FAA TRACON SMA TRACON (SMA)
Wed 08:30:45 AM 40.1089 -75.2936 129° Southeast 261 300 6,000  Level FAA TRACON SMA TRACON (SMA)
Wed 08:31:05 AM 40.0953 -75.2714 129° Southeast 260 299 6,000  Level FAA TRACON SMA TRACON (SMA)
Wed 08:31:25 AM 40.0814 -75.2478 128° Southeast 260 299 6,000  Level FAA TRACON SMA TRACON (SMA)
Wed 08:31:45 AM 40.0647 -75.2208 129° Southeast 258 297 6,000  Level FAA TRACON SMA TRACON (SMA)
Wed 08:32:05 AM 40.0472 -75.2019 140° Southeast 251 289 6,000  Level FAA TRACON SMA TRACON (SMA)
Wed 08:32:25 AM 40.0275 -75.1944 164° South 245 282 6,000  Level FAA TRACON SMA TRACON (SMA)
Wed 08:32:45 AM 40.0011 -75.1853 165° South 248 285 6,000  Level FAA TRACON SMA TRACON (SMA)
Wed 08:33:05 AM 39.9836 -75.1689 144° Southeast 254 292 6,000  Level FAA TRACON SMA TRACON (SMA)
Wed 08:33:25 AM 39.9778 -75.1417 106° East 253 291 6,000  Level FAA TRACON SMA TRACON (SMA)
Wed 08:33:45 AM 39.9847 -75.1081 75° East 258 297 6,000  Level FAA TRACON SMA TRACON (SMA)
Wed 08:34:05 AM 39.9917 -75.0803 72° East 255 293 6,000  Level FAA TRACON SMA TRACON (SMA)
Wed 08:34:25 AM 39.9983 -75.0542 72° East 255 293 6,000  Level FAA TRACON SMA TRACON (SMA)
Wed 08:34:45 AM 40.0053 -75.0200 75° East 256 295 6,000  Level FAA TRACON SMA TRACON (SMA)
Wed 08:35:05 AM 40.0117 -74.9908 74° East 257 296 6,000  Level FAA TRACON SMA TRACON (SMA)
Wed 08:35:25 AM 40.0186 -74.9656 70° East 257 296 6,000  Level FAA TRACON SMA TRACON (SMA)
Wed 08:35:45 AM 40.0256 -74.9289 76° East 258 297 6,000  Level FAA TRACON SMA TRACON (SMA)
Wed 08:36:05 AM 40.0319 -74.9017 73° East 257 296 6,000  Level FAA TRACON SMA TRACON (SMA)
Wed 08:36:25 AM 40.0378 -74.8736 75° East 258 297 6,000  Level FAA TRACON SMA TRACON (SMA)
Wed 08:36:45 AM 40.0456 -74.8386 74° East 259 298 6,000  Level FAA TRACON SMA TRACON (SMA)
Wed 08:37:05 AM 40.0478 -74.8097 84° East 280 322 6,000  Level FAA TRACON SMA TRACON (SMA)
Wed 08:37:25 AM 40.0386 -74.7856 116° Southeast 236 272 6,000  Level FAA TRACON SMA TRACON (SMA)
Wed 08:37:45 AM 40.0189 -74.7753 158° South 215 247 6,000  Level FAA TRACON SMA TRACON (SMA)
Wed 08:38:05 AM 40.0014 -74.7775 186° South 205 236 6,000  Level FAA TRACON SMA TRACON (SMA)
Wed 08:38:25 AM 39.9861 -74.7803 188° South 189 217 6,000 -300 Level FAA TRACON SMA TRACON (SMA)
Wed 08:38:45 AM 39.9661 -74.7844 189° South 187 215 5,800 -900 Descending FAA TRACON SMA TRACON (SMA)
Wed 08:39:05 AM 39.9514 -74.7908 198° South 183 211 5,400 -1,050 Descending FAA TRACON SMA TRACON (SMA)
Wed 08:39:25 AM 39.9347 -74.7908 180° South 186 214 5,100 -600 Descending FAA TRACON SMA TRACON (SMA)
Wed 08:39:45 AM 39.9178 -74.8017 206° Southwest 175 201 5,000 -150 Descending FAA TRACON SMA TRACON (SMA)
Wed 08:40:05 AM 39.9164 -74.8194 264° West 167 192 5,000  Level FAA TRACON SMA TRACON (SMA)
Wed 08:40:25 AM 39.9194 -74.8358 284° West 162 186 5,000 -300 Level FAA TRACON SMA TRACON (SMA)
Wed 08:40:45 AM 39.9242 -74.8564 287° West 152 175 4,800 -750 Descending FAA TRACON SMA TRACON (SMA)
Wed 08:41:05 AM 39.9281 -74.8725 287° West 153 176 4,500 -1,050 Descending FAA TRACON SMA TRACON (SMA)
Wed 08:41:25 AM 39.9314 -74.8886 285° West 151 174 4,100 -750 Descending FAA TRACON SMA TRACON (SMA)
Wed 08:41:45 AM 39.9356 -74.9086 285° West 152 175 4,000 -150 Descending FAA TRACON SMA TRACON (SMA)
Wed 08:42:05 AM 39.9328 -74.9272 259° West 168 193 4,000  Level FAA TRACON SMA TRACON (SMA)
Wed 08:42:25 AM 39.9297 -74.9450 257° West 171 197 4,000 -150 Level FAA TRACON SMA TRACON (SMA)
Wed 08:42:45 AM 39.9258 -74.9667 257° West 161 185 3,900 -450 Descending FAA TRACON SMA TRACON (SMA)
Wed 08:43:05 AM 39.9222 -74.9844 255° West 163 188 3,700 -750 Descending FAA TRACON SMA TRACON (SMA)
Wed 08:43:25 AM 39.9194 -75.0022 258° West 162 186 3,400 -1,050 Descending FAA TRACON SMA TRACON (SMA)
Wed 08:43:45 AM 39.9147 -75.0236 254° West 161 185 3,000 -900 Descending FAA TRACON SMA TRACON (SMA)
Wed 08:44:05 AM 39.9108 -75.0406 253° West 160 184 2,800 -600 Descending FAA TRACON SMA TRACON (SMA)

Login

Don't have an account? Register now (free) for customized features, flight alerts, and more!